Time;durP1;ratioP1;P1;durP2;ratioP2;P2;SDS_P1;SDS_P2;PMS_P1;PMS_P2;Temp;Humidity;BMP_temperature;BMP_pressure;BME280_temperature;BME280_humidity;BME280_pressure;Samples;Min_cycle;Max_cycle;Signal;HPM_P1;HPM_P2
2022/01/23 00:01:15;;;;;;;10.10;4.50;;;;;;;4.39;100.00;102544.55;107869;1279;74048;-74
2022/01/23 00:03:46;;;;;;;6.10;4.20;;;;;;;4.36;100.00;102547.33;107866;1280;62556;-72
2022/01/23 00:06:12;;;;;;;10.20;4.60;;;;;;;4.33;100.00;102544.70;107861;1281;60297;-74
2022/01/23 00:08:43;;;;;;;9.20;4.80;;;;;;;4.29;100.00;102544.58;107861;1281;74231;-74
2022/01/23 00:11:10;;;;;;;12.30;5.30;;;;;;;4.25;100.00;102542.71;107868;1280;72416;-74
2022/01/23 00:17:16;;;;;;;7.20;4.30;;;;;;;4.22;100.00;102541.33;107770;1280;58892;-73
2022/01/23 00:19:12;;;;;;;12.40;6.10;;;;;;;4.16;100.00;102545.16;107878;1280;59184;-73
2022/01/23 00:21:40;;;;;;;12.30;4.80;;;;;;;4.13;100.00;102550.55;107869;1279;74097;-73
2022/01/23 00:32:08;;;;;;;9.20;4.40;;;;;;;4.11;100.00;102552.63;107926;1278;60643;-74
2022/01/23 00:34:36;;;;;;;11.60;4.50;;;;;;;4.10;100.00;102546.00;107776;1281;74079;-73
2022/01/23 00:37:04;;;;;;;7.60;3.60;;;;;;;4.09;100.00;102541.14;107898;1279;71720;-73
2022/01/23 00:39:30;;;;;;;9.40;4.70;;;;;;;4.10;100.00;102545.33;107858;1280;70997;-73
2022/01/23 00:41:57;;;;;;;10.50;4.60;;;;;;;4.09;100.00;102548.17;107760;1280;61164;-73
2022/01/23 00:44:26;;;;;;;9.10;4.40;;;;;;;4.08;100.00;102543.34;107865;1280;61615;-72
2022/01/23 00:46:53;;;;;;;9.70;4.50;;;;;;;4.07;100.00;102551.08;107907;1279;75341;-75
2022/01/23 00:49:25;;;;;;;12.70;5.80;;;;;;;4.06;100.00;102554.08;107828;1279;72188;-73
2022/01/23 00:51:53;;;;;;;6.40;3.20;;;;;;;4.07;100.00;102551.95;107879;1279;72032;-74
2022/01/23 00:54:20;;;;;;;6.40;3.10;;;;;;;4.05;100.00;102540.84;107859;1279;61190;-74
2022/01/23 00:56:47;;;;;;;10.50;4.40;;;;;;;4.04;100.00;102547.89;107874;1279;60733;-73
2022/01/23 00:59:14;;;;;;;10.60;5.80;;;;;;;4.04;100.00;102548.80;107780;1281;75293;-74
2022/01/23 01:01:41;;;;;;;11.10;4.50;;;;;;;4.05;100.00;102549.81;107901;1279;71870;-74
2022/01/23 01:04:07;;;;;;;12.10;6.10;;;;;;;4.04;100.00;102544.23;107754;1280;72767;-74
2022/01/23 01:06:34;;;;;;;11.10;5.10;;;;;;;4.04;100.00;102532.85;107872;1279;61489;-72
2022/01/23 01:09:02;;;;;;;12.10;4.50;;;;;;;4.04;100.00;102529.71;107878;1280;60586;-74
2022/01/23 01:33:46;;;;;;;9.50;5.30;;;;;;;4.01;100.00;102551.59;107903;1279;62039;-74
2022/01/23 01:35:50;;;;;;;13.00;5.70;;;;;;;4.01;100.00;102547.58;107647;1281;59592;-73
2022/01/23 01:38:17;;;;;;;8.80;5.10;;;;;;;4.01;100.00;102553.17;107786;1281;74189;-73
2022/01/23 01:40:43;;;;;;;11.10;5.50;;;;;;;4.00;100.00;102552.51;107875;1280;71318;-75
2022/01/23 01:43:10;;;;;;;9.00;5.10;;;;;;;3.99;100.00;102553.27;107853;1279;72851;-74
2022/01/23 01:45:40;;;;;;;9.70;5.60;;;;;;;3.98;100.00;102557.00;107860;1281;62516;-74
2022/01/23 01:48:07;;;;;;;10.40;5.80;;;;;;;3.97;100.00;102558.44;107892;1279;60635;-73
2022/01/23 01:50:34;;;;;;;8.10;5.00;;;;;;;3.96;100.00;102564.80;107794;1281;59029;-73
2022/01/23 01:53:01;;;;;;;10.10;5.10;;;;;;;3.96;100.00;102563.44;107760;1280;71228;-73
2022/01/23 01:55:36;;;;;;;9.80;4.80;;;;;;;3.96;100.00;102566.59;107876;1280;72066;-73
2022/01/23 01:58:04;;;;;;;9.90;3.90;;;;;;;3.96;100.00;102567.27;107872;1279;61442;-73
2022/01/23 02:02:39;;;;;;;6.70;4.00;;;;;;;3.97;100.00;102569.48;107887;1279;59530;-73
2022/01/23 02:08:49;;;;;;;9.80;4.30;;;;;;;4.00;100.00;102574.73;107886;1281;73853;-74
2022/01/23 02:11:22;;;;;;;8.60;4.60;;;;;;;4.01;100.00;102573.65;107921;1279;61981;-73
2022/01/23 02:13:57;;;;;;;13.60;5.50;;;;;;;4.01;100.00;102572.98;107714;1281;60660;-72
2022/01/23 02:17:12;;;;;;;;;;;;;;;4.00;100.00;102568.27;107988;1279;74271;-73
2022/01/23 02:55:16;;;;;;;;;;;;;;;3.90;100.00;102562.54;107945;1280;60827;-75
2022/01/23 03:00:14;;;;;;;11.10;5.50;;;;;;;3.89;100.00;102557.49;107770;1281;69999;-75
2022/01/23 03:02:45;;;;;;;9.90;5.60;;;;;;;3.89;100.00;102556.13;107795;1281;74295;-75
2022/01/23 03:05:13;;;;;;;10.30;6.20;;;;;;;3.88;100.00;102558.63;107884;1280;61185;-75
2022/01/23 03:10:26;;;;;;;8.80;4.90;;;;;;;3.89;100.00;102562.27;107883;1280;75096;-75
2022/01/23 03:15:55;;;;;;;11.20;5.80;;;;;;;3.91;100.00;102565.83;107799;1280;72993;-75
2022/01/23 03:26:51;;;;;;;8.40;5.40;;;;;;;3.95;100.00;102572.04;107922;1280;72612;-75
2022/01/23 03:29:26;;;;;;;8.60;4.70;;;;;;;3.97;100.00;102575.98;107942;1279;72989;-76
2022/01/23 03:34:24;;;;;;;12.50;5.90;;;;;;;4.00;100.00;102568.12;107912;1279;60130;-75
2022/01/23 03:36:51;;;;;;;10.10;5.50;;;;;;;4.00;100.00;102564.92;107940;1280;74983;-75
2022/01/23 03:39:18;;;;;;;11.70;5.50;;;;;;;4.01;100.00;102562.95;107964;1280;71509;-75
2022/01/23 03:41:45;;;;;;;11.00;4.40;;;;;;;4.01;100.00;102565.57;107900;1281;73154;-75
2022/01/23 03:44:15;;;;;;;9.90;6.00;;;;;;;4.02;100.00;102556.98;107934;1279;61470;-75
2022/01/23 03:47:02;;;;;;;12.40;6.50;;;;;;;4.01;100.00;102555.23;107897;1280;59667;-75
2022/01/23 03:49:31;;;;;;;11.00;6.20;;;;;;;4.01;100.00;102560.35;107883;1281;76044;-75
2022/01/23 03:52:11;;;;;;;12.90;6.90;;;;;;;4.00;100.00;102563.02;107880;1280;72415;-75
2022/01/23 03:54:41;;;;;;;12.50;6.50;;;;;;;3.99;100.00;102559.94;107878;1281;73017;-75
2022/01/23 03:57:08;;;;;;;12.10;5.50;;;;;;;3.99;100.00;102567.31;107793;1280;61219;-75
2022/01/23 03:59:35;;;;;;;10.80;6.20;;;;;;;3.99;100.00;102570.80;107854;1279;60862;-76
2022/01/23 04:02:03;;;;;;;12.60;6.80;;;;;;;3.98;100.00;102567.31;107891;1279;74950;-75
2022/01/23 04:04:39;;;;;;;14.10;7.80;;;;;;;3.98;100.00;102566.45;107861;1280;71461;-77
2022/01/23 04:07:21;;;;;;;16.30;7.40;;;;;;;3.99;100.00;102567.30;107845;1281;72928;-74
2022/01/23 04:09:48;;;;;;;17.70;7.60;;;;;;;3.99;100.00;102567.64;107752;1281;61531;-75
2022/01/23 04:12:42;;;;;;;12.50;5.90;;;;;;;3.97;100.00;102571.59;107876;1280;59740;-75
2022/01/23 05:01:46;;;;;;;11.70;5.60;;;;;;;3.81;100.00;102586.64;107925;1279;72964;-75
2022/01/23 05:04:24;;;;;;;13.20;6.50;;;;;;;3.80;100.00;102583.54;107905;1281;61522;-75
2022/01/23 05:07:06;;;;;;;15.30;7.40;;;;;;;3.80;100.00;102583.20;107941;1279;61972;-75
2022/01/23 05:09:33;;;;;;;13.00;5.50;;;;;;;3.80;100.00;102586.02;107914;1280;76161;-75
2022/01/23 05:12:03;;;;;;;14.40;6.70;;;;;;;3.82;100.00;102591.69;107793;1281;72558;-75
2022/01/23 05:14:39;;;;;;;14.30;8.00;;;;;;;3.85;100.00;102595.75;107762;1281;75686;-75
2022/01/23 05:17:10;;;;;;;13.50;6.10;;;;;;;3.87;100.00;102597.00;107936;1280;61152;-75
2022/01/23 05:19:38;;;;;;;12.60;6.10;;;;;;;3.88;100.00;102600.44;107739;1281;60334;-75
2022/01/23 05:25:10;;;;;;;12.50;7.00;;;;;;;3.92;100.00;102609.70;107898;1281;71702;-75
2022/01/23 05:27:37;;;;;;;13.90;6.60;;;;;;;3.94;100.00;102602.59;107941;1280;72761;-75
2022/01/23 05:30:05;;;;;;;7.80;4.50;;;;;;;3.95;100.00;102602.50;107893;1280;63295;-75
2022/01/23 05:32:36;;;;;;;11.90;6.60;;;;;;;3.95;100.00;102602.86;107947;1280;60634;-75
2022/01/23 05:35:04;;;;;;;9.30;5.80;;;;;;;3.97;100.00;102601.02;107925;1280;74941;-74
2022/01/23 05:37:32;;;;;;;7.70;4.30;;;;;;;3.98;100.00;102598.71;107946;1280;72818;-74
2022/01/23 05:40:00;;;;;;;10.10;5.40;;;;;;;3.97;100.00;102604.36;107790;1279;73163;-75
2022/01/23 05:42:26;;;;;;;10.10;6.10;;;;;;;3.97;100.00;102605.56;107927;1279;62276;-75
2022/01/23 05:44:53;;;;;;;9.50;5.70;;;;;;;3.98;100.00;102605.35;107918;1281;60334;-75
2022/01/23 05:47:20;;;;;;;10.00;6.40;;;;;;;3.98;100.00;102611.63;107793;1281;59466;-75
2022/01/23 05:49:49;;;;;;;14.50;5.20;;;;;;;3.99;100.00;102604.75;107927;1280;72368;-75
2022/01/23 05:52:16;;;;;;;8.60;5.50;;;;;;;4.01;100.00;102605.88;107911;1281;74073;-75
2022/01/23 05:54:42;;;;;;;10.00;4.90;;;;;;;4.01;100.00;102609.85;107920;1281;61235;-75
2022/01/23 05:57:09;;;;;;;7.50;3.70;;;;;;;4.01;100.00;102609.88;107934;1280;60437;-75
2022/01/23 05:59:35;;;;;;;10.30;4.80;;;;;;;4.00;100.00;102614.52;107935;1280;59948;-75
2022/01/23 06:02:02;;;;;;;6.70;3.80;;;;;;;3.99;100.00;102613.69;107728;1281;71356;-75
2022/01/23 06:04:29;;;;;;;11.30;5.20;;;;;;;3.98;100.00;102611.61;107895;1280;74046;-74
2022/01/23 06:06:58;;;;;;;8.70;4.20;;;;;;;3.99;100.00;102618.96;107953;1279;62129;-75
2022/01/23 06:09:25;;;;;;;8.40;4.20;;;;;;;3.99;100.00;102621.21;107929;1280;60773;-74
2022/01/23 06:11:52;;;;;;;5.50;2.80;;;;;;;3.99;100.00;102628.52;107849;1279;76020;-75
2022/01/23 06:14:19;;;;;;;6.70;4.40;;;;;;;4.00;100.00;102626.39;107803;1281;71422;-75
2022/01/23 06:16:46;;;;;;;6.20;3.60;;;;;;;4.00;100.00;102626.60;107848;1279;74008;-75
2022/01/23 06:19:13;;;;;;;9.40;4.50;;;;;;;3.98;100.00;102620.39;107861;1281;62343;-76
2022/01/23 06:21:40;;;;;;;9.60;4.80;;;;;;;3.97;100.00;102623.05;107971;1278;60470;-75
2022/01/23 06:24:10;;;;;;;8.20;4.40;;;;;;;3.96;100.00;102621.36;107918;1279;76101;-76
2022/01/23 06:26:45;;;;;;;8.60;4.80;;;;;;;3.99;100.00;102628.57;107773;1281;74221;-75
2022/01/23 06:29:14;;;;;;;8.10;4.60;;;;;;;4.00;100.00;102631.16;107946;1279;73184;-75
2022/01/23 06:31:41;;;;;;;7.20;4.60;;;;;;;4.00;100.00;102637.44;107793;1279;62030;-76
2022/01/23 06:34:09;;;;;;;5.50;3.30;;;;;;;4.00;100.00;102638.30;107839;1281;61366;-75
2022/01/23 06:36:37;;;;;;;8.10;4.90;;;;;;;4.00;100.00;102643.20;107957;1279;75025;-75
2022/01/23 06:39:07;;;;;;;6.20;3.30;;;;;;;4.00;100.00;102645.48;107968;1279;71430;-76
2022/01/23 06:41:33;;;;;;;9.10;3.90;;;;;;;3.99;100.00;102647.81;107973;1279;72983;-75
2022/01/23 06:44:01;;;;;;;6.20;3.50;;;;;;;3.97;100.00;102651.77;107810;1281;63370;-75
2022/01/23 06:46:27;;;;;;;6.80;3.60;;;;;;;3.98;100.00;102653.66;107958;1279;60612;-75
2022/01/23 06:48:54;;;;;;;7.60;4.60;;;;;;;3.98;100.00;102654.55;107957;1280;74952;-75
2022/01/23 06:51:21;;;;;;;7.80;4.30;;;;;;;3.97;100.00;102650.55;107973;1279;71509;-76
2022/01/23 06:53:48;;;;;;;7.30;4.60;;;;;;;3.98;100.00;102655.02;107946;1281;74082;-75
2022/01/23 06:56:15;;;;;;;7.40;4.00;;;;;;;3.98;100.00;102656.45;107942;1279;62139;-75
2022/01/23 06:58:42;;;;;;;11.10;4.80;;;;;;;3.99;100.00;102656.91;107955;1280;60727;-74
2022/01/23 07:01:09;;;;;;;10.30;5.10;;;;;;;4.00;100.00;102657.55;107972;1279;59013;-75
2022/01/23 07:03:36;;;;;;;10.90;5.50;;;;;;;4.00;100.00;102655.15;107800;1281;70353;-75
2022/01/23 07:06:04;;;;;;;10.40;5.00;;;;;;;3.99;100.00;102658.65;107650;1279;73798;-74
2022/01/23 07:08:34;;;;;;;8.70;4.30;;;;;;;3.99;100.00;102660.09;107649;1279;63047;-75
2022/01/23 07:11:00;;;;;;;11.80;6.10;;;;;;;3.99;100.00;102661.48;107796;1281;60629;-75
2022/01/23 07:13:27;;;;;;;10.20;4.90;;;;;;;3.99;100.00;102661.27;107935;1279;76233;-75
2022/01/23 07:15:54;;;;;;;7.20;4.50;;;;;;;4.00;100.00;102662.27;107933;1279;71939;-75
2022/01/23 07:18:21;;;;;;;7.20;4.40;;;;;;;4.00;100.00;102660.73;107798;1281;73949;-76
2022/01/23 07:20:48;;;;;;;7.10;3.80;;;;;;;4.00;100.00;102658.09;107933;1279;63328;-75
2022/01/23 07:23:21;;;;;;;9.00;4.60;;;;;;;3.99;100.00;102667.77;107955;1280;61953;-75
2022/01/23 07:25:48;;;;;;;9.20;5.60;;;;;;;3.98;100.00;102666.43;107917;1280;74966;-75
2022/01/23 07:28:18;;;;;;;9.00;5.60;;;;;;;3.99;100.00;102671.79;107411;1281;340875;-75
2022/01/23 07:30:52;;;;;;;7.10;4.30;;;;;;;4.00;100.00;102667.71;107950;1280;74105;-75
2022/01/23 07:33:19;;;;;;;9.10;4.70;;;;;;;4.01;100.00;102669.41;107732;1281;61323;-74
2022/01/23 07:35:47;;;;;;;9.40;5.50;;;;;;;4.01;100.00;102673.13;107946;1280;59546;-75
2022/01/23 07:38:17;;;;;;;8.20;4.90;;;;;;;4.01;100.00;102673.59;107989;1278;75953;-76
2022/01/23 07:40:48;;;;;;;7.40;4.80;;;;;;;4.02;100.00;102672.16;107973;1279;72465;-76
2022/01/23 07:43:15;;;;;;;8.30;4.60;;;;;;;4.02;100.00;102674.78;107947;1279;73042;-75
2022/01/23 07:45:43;;;;;;;9.70;4.00;;;;;;;4.03;100.00;102681.73;107978;1279;62036;-75
2022/01/23 07:48:10;;;;;;;8.80;4.80;;;;;;;4.01;100.00;102682.54;107975;1278;60683;-73
2022/01/23 07:50:37;;;;;;;7.40;3.90;;;;;;;4.00;100.00;102683.61;107965;1279;75059;-74
2022/01/23 07:53:04;;;;;;;7.90;4.70;;;;;;;4.01;100.00;102683.04;107706;1280;72384;-75
2022/01/23 07:55:31;;;;;;;6.30;3.70;;;;;;;4.04;100.00;102695.17;107983;1279;74273;-75
2022/01/23 07:58:04;;;;;;;9.80;4.80;;;;;;;4.05;100.00;102696.13;107682;1281;62283;-75
2022/01/23 08:00:33;;;;;;;7.70;4.10;;;;;;;4.07;100.00;102695.00;108005;1279;59221;-73
2022/01/23 08:03:02;;;;;;;7.50;4.90;;;;;;;4.07;100.00;102696.73;108014;1279;75211;-75
2022/01/23 08:05:29;;;;;;;8.50;5.00;;;;;;;4.10;100.00;102697.81;108002;1279;71544;-73
2022/01/23 08:07:56;;;;;;;7.90;4.00;;;;;;;4.11;100.00;102702.88;108009;1279;72973;-73
2022/01/23 08:10:22;;;;;;;7.10;4.50;;;;;;;4.11;100.00;102702.52;107995;1279;58473;-75
2022/01/23 08:12:49;;;;;;;8.20;4.80;;;;;;;4.11;100.00;102705.63;107784;1279;59188;-75
2022/01/23 08:15:15;;;;;;;7.40;3.80;;;;;;;4.13;100.00;102706.79;108016;1279;76058;-76
2022/01/23 08:17:42;;;;;;;10.50;4.20;;;;;;;4.14;100.00;102710.05;108003;1279;71462;-75
2022/01/23 08:20:09;;;;;;;8.80;3.90;;;;;;;4.17;100.00;102711.85;107986;1280;74481;-73
2022/01/23 08:22:39;;;;;;;7.10;4.20;;;;;;;4.19;100.00;102708.59;107960;1279;63624;-75
2022/01/23 08:25:06;;;;;;;5.40;3.10;;;;;;;4.21;100.00;102715.60;107992;1280;60770;-75
2022/01/23 08:27:34;;;;;;;8.20;4.40;;;;;;;4.22;100.00;102716.95;107961;1280;74620;-73
2022/01/23 08:30:03;;;;;;;6.90;3.70;;;;;;;4.25;100.00;102719.41;108007;1280;72415;-76
2022/01/23 08:32:29;;;;;;;8.20;4.40;;;;;;;4.26;100.00;102729.51;107962;1280;74396;-74
2022/01/23 08:34:56;;;;;;;9.70;4.90;;;;;;;4.28;100.00;102737.29;107967;1280;62317;-73
2022/01/23 08:37:23;;;;;;;6.10;3.80;;;;;;;4.32;100.00;102736.08;107966;1280;60576;-76
2022/01/23 08:39:49;;;;;;;5.50;3.60;;;;;;;4.34;100.00;102740.46;107985;1280;75994;-73
2022/01/23 08:42:17;;;;;;;7.10;4.40;;;;;;;4.35;100.00;102743.20;107965;1280;71376;-73
2022/01/23 08:44:45;;;;;;;9.90;5.60;;;;;;;4.36;100.00;102746.16;107828;1281;74091;-75
2022/01/23 08:47:13;;;;;;;8.70;4.30;;;;;;;4.37;100.00;102744.66;107977;1280;63360;-73
2022/01/23 08:49:45;;;;;;;8.50;6.00;;;;;;;4.38;100.00;102747.07;107975;1280;60500;-73
2022/01/23 08:52:20;;;;;;;9.50;4.70;;;;;;;4.41;100.00;102745.50;107995;1280;74900;-73
2022/01/23 08:54:49;;;;;;;9.60;6.00;;;;;;;4.43;100.00;102742.41;107758;1279;71339;-75
2022/01/23 08:57:19;;;;;;;11.80;5.90;;;;;;;4.45;100.00;102742.52;107980;1281;74122;-76
2022/01/23 08:59:46;;;;;;;10.00;5.80;;;;;;;4.47;100.00;102742.02;107962;1280;63293;-74
2022/01/23 09:02:13;;;;;;;8.30;5.30;;;;;;;4.51;100.00;102745.71;107660;1281;60415;-73
2022/01/23 09:04:40;;;;;;;9.20;5.70;;;;;;;4.49;100.00;102747.16;107817;1280;74064;-73
2022/01/23 09:07:06;;;;;;;8.90;4.90;;;;;;;4.52;100.00;102743.02;107984;1280;71357;-73
2022/01/23 09:09:37;;;;;;;7.90;5.50;;;;;;;4.55;100.00;102748.98;107916;1280;74186;-73
2022/01/23 09:14:42;;;;;;;9.90;5.80;;;;;;;4.57;100.00;102751.29;107768;1280;60813;-76
2022/01/23 09:17:09;;;;;;;11.40;5.40;;;;;;;4.57;100.00;102751.65;107964;1281;74693;-72
2022/01/23 09:19:36;;;;;;;8.20;4.50;;;;;;;4.59;100.00;102745.24;107980;1281;72522;-72
2022/01/23 09:22:03;;;;;;;10.60;6.00;;;;;;;4.60;100.00;102735.69;107585;1281;72106;-72
2022/01/23 09:24:30;;;;;;;12.10;6.70;;;;;;;4.63;100.00;102733.81;107799;1281;63709;-72
2022/01/23 09:27:02;;;;;;;9.60;6.20;;;;;;;4.65;100.00;102739.10;107988;1278;59330;-73
2022/01/23 09:29:38;;;;;;;7.00;4.70;;;;;;;4.68;100.00;102736.13;107935;1280;74946;-72
2022/01/23 09:32:09;;;;;;;9.90;6.10;;;;;;;4.70;100.00;102742.15;107967;1281;71656;-72
2022/01/23 09:34:36;;;;;;;10.10;6.30;;;;;;;4.70;100.00;102741.96;107973;1279;73015;-73
2022/01/23 09:37:08;;;;;;;8.80;4.70;;;;;;;4.72;100.00;102742.75;107669;1281;63486;-75
2022/01/23 09:39:36;;;;;;;9.70;5.60;;;;;;;4.73;100.00;102742.52;107948;1279;60778;-75
2022/01/23 09:42:13;;;;;;;10.00;4.30;;;;;;;4.79;100.00;102743.97;107972;1281;74980;-75
2022/01/23 09:44:43;;;;;;;10.30;6.00;;;;;;;4.80;100.00;102749.64;108006;1279;71418;-75
2022/01/23 09:47:15;;;;;;;8.40;5.00;;;;;;;4.82;100.00;102744.44;107942;1279;74285;-75
2022/01/23 09:49:43;;;;;;;10.10;4.80;;;;;;;4.83;100.00;102741.94;107935;1279;61890;-75
2022/01/23 09:52:12;;;;;;;10.50;5.80;;;;;;;4.83;100.00;102739.33;107819;1279;61630;-72
2022/01/23 09:54:41;;;;;;;7.80;4.40;;;;;;;4.85;100.00;102743.76;107972;1278;76231;-75
2022/01/23 09:57:10;;;;;;;7.50;4.70;;;;;;;4.88;100.00;102745.37;107870;1279;72264;-72
2022/01/23 09:59:38;;;;;;;7.60;4.40;;;;;;;4.93;100.00;102740.88;107885;1279;72239;-74
2022/01/23 10:02:05;;;;;;;6.40;4.10;;;;;;;4.98;100.00;102747.27;107956;1279;62428;-73
2022/01/23 10:04:32;;;;;;;8.70;5.60;;;;;;;5.00;100.00;102745.73;107956;1279;61569;-72
2022/01/23 10:06:59;;;;;;;12.30;6.20;;;;;;;5.02;100.00;102746.69;107955;1281;75251;-74
2022/01/23 10:09:27;;;;;;;9.50;6.30;;;;;;;5.04;100.00;102751.98;107959;1279;59239;-76
2022/01/23 10:11:54;;;;;;;8.50;5.50;;;;;;;5.05;100.00;102757.00;107696;1281;74341;-73
2022/01/23 10:14:20;;;;;;;11.30;5.20;;;;;;;5.07;100.00;102752.69;107808;1280;62359;-74
2022/01/23 10:16:48;;;;;;;8.00;5.20;;;;;;;5.09;100.00;102757.13;107973;1279;59469;-73
2022/01/23 10:19:15;;;;;;;11.50;6.50;;;;;;;5.12;100.00;102759.06;107846;1280;75152;-72
2022/01/23 10:21:44;;;;;;;10.70;5.80;;;;;;;5.14;100.00;102763.49;107955;1279;72505;-76
2022/01/23 10:24:12;;;;;;;10.30;5.80;;;;;;;5.15;100.00;102760.83;107949;1280;73071;-77
2022/01/23 10:26:53;;;;;;;10.20;5.50;;;;;;;5.18;100.00;102758.55;107876;1281;63334;-76
2022/01/23 10:29:26;;;;;;;9.30;6.30;;;;;;;5.19;100.00;102763.41;107974;1280;61038;-76
2022/01/23 10:32:23;;;;;;;9.90;6.70;;;;;;;5.21;100.00;102759.41;107953;1280;74959;-76
2022/01/23 10:34:55;;;;;;;9.30;4.90;;;;;;;5.25;100.00;102756.56;107836;1279;71466;-75
2022/01/23 10:37:23;;;;;;;11.00;5.40;;;;;;;5.27;100.00;102755.19;107857;1280;74054;-75
2022/01/23 10:39:50;;;;;;;9.10;5.10;;;;;;;5.27;100.00;102758.52;107969;1280;62406;-77
2022/01/23 10:51:12;;;;;;;11.10;6.60;;;;;;;5.31;100.00;102765.16;107969;1279;72925;-77
2022/01/23 10:53:58;;;;;;;12.50;6.10;;;;;;;5.30;100.00;102763.29;107868;1279;63285;-76
2022/01/23 10:56:26;;;;;;;9.30;6.00;;;;;;;5.32;100.00;102765.83;107580;1281;60787;-76
2022/01/23 10:59:03;;;;;;;9.60;5.20;;;;;;;5.33;100.00;102765.23;107924;1280;74739;-76
2022/01/23 11:01:30;;;;;;;12.10;7.60;;;;;;;5.31;100.00;102763.03;107773;1280;73797;-75
2022/01/23 11:04:09;;;;;;;9.40;5.90;;;;;;;5.30;100.00;102761.00;107902;1279;74088;-76
2022/01/23 11:06:53;;;;;;;9.20;5.60;;;;;;;5.29;100.00;102758.78;107748;1281;61313;-75
2022/01/23 11:09:28;;;;;;;9.00;5.00;;;;;;;5.31;100.00;102764.81;107929;1279;61748;-74
2022/01/23 11:12:02;;;;;;;9.40;5.50;;;;;;;5.32;100.00;102767.05;107797;1280;75947;-73
2022/01/23 11:19:57;;;;;;;9.60;5.20;;;;;;;5.39;100.00;102766.31;107748;1279;61647;-75
2022/01/23 11:22:31;;;;;;;10.10;6.00;;;;;;;5.40;100.00;102762.55;107748;1281;61956;-73
2022/01/23 11:25:07;;;;;;;9.20;5.40;;;;;;;5.42;100.00;102758.77;107889;1279;75126;-75
2022/01/23 11:27:37;;;;;;;7.50;4.30;;;;;;;5.43;100.00;102756.73;107903;1280;72622;-73
2022/01/23 11:30:09;;;;;;;10.00;6.00;;;;;;;5.44;100.00;102757.37;107609;1280;74057;-74
2022/01/23 11:32:39;;;;;;;11.90;5.80;;;;;;;5.47;100.00;102754.04;107778;1279;62527;-75
2022/01/23 11:35:15;;;;;;;7.60;5.30;;;;;;;5.48;100.00;102750.52;107744;1279;61629;-75
2022/01/23 11:37:49;;;;;;;9.10;5.10;;;;;;;5.48;100.00;102751.16;107784;1279;76136;-74
2022/01/23 11:54:06;;;;;;;5.20;3.00;;;;;;;5.58;100.00;102755.17;107895;1279;70159;-75
2022/01/23 11:56:40;;;;;;;8.90;4.70;;;;;;;5.57;100.00;102750.29;107869;1280;74099;-74
2022/01/23 11:59:23;;;;;;;8.70;5.00;;;;;;;5.56;100.00;102755.77;107717;1279;61423;-74
2022/01/23 12:02:26;;;;;;;10.80;6.10;;;;;;;5.57;100.00;102753.65;107869;1279;60771;-74
2022/01/23 12:05:22;;;;;;;10.50;5.70;;;;;;;5.53;100.00;102750.54;107587;1281;73549;-74
2022/01/23 12:08:31;;;;;;;7.50;4.40;;;;;;;5.51;100.00;102744.69;107954;1279;71368;-75
2022/01/23 12:17:24;;;;;;;10.70;5.60;;;;;;;5.53;100.00;102739.85;107880;1279;60702;-75
2022/01/23 12:20:12;;;;;;;8.00;5.10;;;;;;;5.55;100.00;102735.11;107807;1280;74929;-76
2022/01/23 12:22:55;;;;;;;8.90;5.20;;;;;;;5.57;100.00;102734.48;107935;1279;71075;-74
2022/01/23 12:25:28;;;;;;;11.90;5.40;;;;;;;5.58;100.00;102732.14;107801;1280;72022;-77
2022/01/23 12:28:33;;;;;;;8.10;5.00;;;;;;;5.60;100.00;102729.77;107933;1279;62139;-75
2022/01/23 12:31:24;;;;;;;7.10;4.40;;;;;;;5.64;100.00;102728.98;107314;1279;60342;-75
2022/01/23 12:34:01;;;;;;;7.40;4.30;;;;;;;5.64;100.00;102729.17;107934;1279;75388;-76
2022/01/23 12:36:37;;;;;;;7.50;4.70;;;;;;;5.65;100.00;102731.19;107963;1279;70479;-77
2022/01/23 12:39:07;;;;;;;7.60;4.30;;;;;;;5.66;100.00;102727.77;107725;1281;73012;-75
2022/01/23 12:41:41;;;;;;;8.90;4.30;;;;;;;5.68;100.00;102735.04;107896;1279;62391;-77
2022/01/23 12:44:27;;;;;;;8.40;4.80;;;;;;;5.68;100.00;102732.06;107745;1281;59635;-76
2022/01/23 12:47:06;;;;;;;7.70;5.10;;;;;;;5.70;100.00;102732.84;107815;1279;76238;-75
2022/01/23 12:49:46;;;;;;;9.20;4.90;;;;;;;5.69;100.00;102733.20;107828;1280;72539;-76
2022/01/23 12:52:17;;;;;;;8.70;5.50;;;;;;;5.67;100.00;102733.34;107776;1280;73241;-76
2022/01/23 12:54:46;;;;;;;13.40;5.60;;;;;;;5.67;100.00;102731.77;107856;1279;63407;-76
2022/01/23 12:57:16;;;;;;;6.90;4.80;;;;;;;5.69;100.00;102728.83;107883;1279;60634;-76
2022/01/23 12:59:54;;;;;;;11.30;4.60;;;;;;;5.68;100.00;102725.89;107822;1279;75874;-77
2022/01/23 13:02:22;;;;;;;7.30;3.80;;;;;;;5.67;100.00;102725.25;107838;1280;71135;-75
2022/01/23 13:04:52;;;;;;;7.50;4.60;;;;;;;5.67;100.00;102723.91;107817;1279;74570;-75
2022/01/23 13:10:21;;;;;;;11.90;6.70;;;;;;;5.69;100.00;102720.08;107899;1278;60627;-77
2022/01/23 13:12:54;;;;;;;9.30;5.50;;;;;;;5.72;100.00;102715.14;107790;1281;74679;-76
2022/01/23 13:15:45;;;;;;;9.20;6.20;;;;;;;5.73;100.00;102717.20;107867;1279;72319;-78
2022/01/23 13:27:05;;;;;;;12.20;7.50;;;;;;;5.72;100.00;102716.53;107881;1279;75979;-77
2022/01/23 13:32:04;;;;;;;9.40;6.00;;;;;;;5.73;100.00;102721.26;107872;1280;72729;-76
2022/01/23 13:34:48;;;;;;;11.70;7.20;;;;;;;5.72;100.00;102722.31;107772;1281;61272;-77
2022/01/23 13:37:22;;;;;;;10.80;7.20;;;;;;;5.71;100.00;102722.77;107552;1281;60580;-77
2022/01/23 13:39:57;;;;;;;10.20;6.90;;;;;;;5.69;100.00;102721.83;107837;1279;75180;-77
2022/01/23 13:51:34;;;;;;;8.30;5.80;;;;;;;5.69;100.00;102727.83;107884;1279;60589;-77
2022/01/23 13:59:51;;;;;;;13.60;6.90;;;;;;;5.68;100.00;102737.52;107913;1279;72998;-78
2022/01/23 14:02:23;;;;;;;13.60;6.90;;;;;;;5.69;100.00;102734.30;107886;1279;62646;-77
2022/01/23 14:05:11;;;;;;;11.50;6.00;;;;;;;5.69;100.00;102730.74;107856;1279;59910;-77
2022/01/23 14:07:39;;;;;;;12.10;7.30;;;;;;;5.70;100.00;102730.89;107850;1279;76454;-77
2022/01/23 14:10:12;;;;;;;10.50;6.40;;;;;;;5.71;100.00;102736.27;107708;1281;71499;-78
2022/01/23 14:12:38;;;;;;;10.80;6.80;;;;;;;5.70;100.00;102732.44;107859;1279;72951;-78
2022/01/23 14:15:25;;;;;;;12.30;7.40;;;;;;;5.71;100.00;102730.12;107850;1279;62750;-78
2022/01/23 14:17:57;;;;;;;;;;;;;;;5.71;100.00;102732.93;107917;1279;60584;-78
2022/01/23 14:20:24;;;;;;;10.60;6.80;;;;;;;5.70;100.00;102733.34;107925;1279;75751;-77
2022/01/23 14:22:52;;;;;;;11.50;7.50;;;;;;;5.68;100.00;102729.96;107746;1281;71368;-77
2022/01/23 14:25:22;;;;;;;9.80;5.30;;;;;;;5.67;100.00;102731.75;107880;1279;73398;-77
2022/01/23 14:28:04;;;;;;;9.60;6.00;;;;;;;5.67;100.00;102731.09;107737;1279;63306;-78
2022/01/23 14:30:31;;;;;;;11.50;7.40;;;;;;;5.67;100.00;102735.80;107838;1281;60327;-78
2022/01/23 14:33:06;;;;;;;11.60;6.80;;;;;;;5.68;100.00;102732.60;107523;1281;75698;-78
2022/01/23 14:35:34;;;;;;;13.40;8.00;;;;;;;5.69;100.00;102731.98;107907;1279;71526;-77
2022/01/23 14:38:16;;;;;;;11.30;7.40;;;;;;;5.70;100.00;102734.77;107933;1279;72695;-77
2022/01/23 14:41:11;;;;;;;10.70;6.70;;;;;;;5.69;100.00;102733.56;107903;1279;62239;-77
2022/01/23 14:43:41;;;;;;;12.50;6.70;;;;;;;5.69;100.00;102731.66;107926;1279;62114;-77
2022/01/23 14:46:10;;;;;;;11.00;5.70;;;;;;;5.68;100.00;102731.33;107816;1281;76009;-77
2022/01/23 14:48:44;;;;;;;9.80;6.00;;;;;;;5.68;100.00;102732.45;107910;1279;72451;-77
2022/01/23 14:51:17;;;;;;;8.60;5.50;;;;;;;5.66;100.00;102735.17;107797;1281;73972;-77
2022/01/23 14:53:44;;;;;;;13.60;7.60;;;;;;;5.64;100.00;102738.09;107954;1279;62736;-77
2022/01/23 14:56:13;;;;;;;9.40;6.50;;;;;;;5.63;100.00;102738.36;107895;1279;60999;-77
2022/01/23 14:58:42;;;;;;;7.60;5.20;;;;;;;5.60;100.00;102739.73;107879;1280;75041;-77
2022/01/23 15:01:12;;;;;;;8.70;4.40;;;;;;;5.60;100.00;102743.10;107866;1279;72463;-77